Time;durP1;ratioP1;P1;durP2;ratioP2;P2;SDS_P1;SDS_P2;PMS_P1;PMS_P2;Temp;Humidity;BMP_temperature;BMP_pressure;BME280_temperature;BME280_humidity;BME280_pressure;Samples;Min_cycle;Max_cycle;Signal;HPM_P1;HPM_P2
2021/12/04 00:00:41;;;;;;;6.60;5.33;;;;;;;-1.70;100.00;99728.41;20574771;27;8363023;-68
2021/12/04 01:11:18;;;;;;;11.50;6.57;;;;;;;-2.05;100.00;99692.59;20710409;27;8684752;-71
2021/12/04 01:31:51;;;;;;;15.52;12.98;;;;;;;-1.30;100.00;99668.06;20699093;27;8296414;-71
2021/12/04 01:52:23;;;;;;;11.43;7.07;;;;;;;-2.01;100.00;99652.44;20570494;27;8584223;-67
2021/12/04 02:32:49;;;;;;;12.50;6.80;;;;;;;-2.22;100.00;99605.91;20671348;27;8288971;-64
2021/12/04 03:03:23;;;;;;;11.87;7.73;;;;;;;-1.80;100.00;99572.59;20727434;27;8569495;-71
2021/12/04 04:03:34;;;;;;;13.03;8.17;;;;;;;-1.22;100.00;99522.16;20654953;27;8376057;-63
2021/12/04 05:14:04;;;;;;;10.03;7.03;;;;;;;-0.32;100.00;99471.28;20856155;27;8431510;-66
2021/12/04 05:54:44;;;;;;;12.37;7.73;;;;;;;-0.08;100.00;99428.50;20731985;27;8422535;-67
2021/12/04 06:15:18;;;;;;;10.40;6.90;;;;;;;0.09;100.00;99426.16;20659219;27;8359046;-65
2021/12/04 06:45:56;;;;;;;12.53;7.17;;;;;;;0.34;100.00;99462.84;20708684;27;8678022;-68
2021/12/04 07:16:28;;;;;;;8.00;5.90;;;;;;;0.79;100.00;99455.00;20700218;27;8658405;-67
2021/12/04 08:16:42;;;;;;;7.00;5.63;;;;;;;1.74;100.00;99442.38;20551539;27;8282206;-62
2021/12/04 08:27:12;;;;;;;6.27;5.63;;;;;;;1.96;100.00;99426.50;20818407;28;20240;-64
2021/12/04 08:47:50;;;;;;;6.97;5.37;;;;;;;2.35;100.00;99429.16;20769901;27;8348100;-66
2021/12/04 08:58:21;;;;;;;6.53;5.77;;;;;;;2.73;100.00;99427.41;20958915;28;20228;-64
2021/12/04 09:08:52;;;;;;;7.33;5.90;;;;;;;2.91;100.00;99425.69;20907583;28;20819;-66
2021/12/04 10:32:25;;;;;;;5.77;5.20;;;;;;;4.02;100.00;99366.50;20711854;27;8296870;-61
2021/12/04 10:42:57;;;;;;;7.67;5.87;;;;;;;4.28;100.00;99360.69;20987162;28;20241;-64
2021/12/04 10:53:35;;;;;;;8.17;6.30;;;;;;;4.45;100.00;99350.06;20981292;28;20238;-62
2021/12/04 11:54:57;;;;;;;6.20;5.50;;;;;;;4.48;100.00;99330.53;20584511;27;8367875;-67
2021/12/04 12:05:30;;;;;;;7.67;5.97;;;;;;;4.48;100.00;99331.38;20854356;28;20250;-61
2021/12/04 12:26:12;;;;;;;10.13;7.70;;;;;;;4.38;100.00;99319.63;20543304;27;9078382;-66
2021/12/04 12:36:43;;;;;;;8.67;7.30;;;;;;;4.19;100.00;99311.03;20866036;28;20230;-65
2021/12/04 12:47:23;;;;;;;8.70;5.97;;;;;;;4.20;100.00;99302.16;20888728;28;20282;-62
2021/12/04 13:17:54;;;;;;;7.33;6.17;;;;;;;3.87;100.00;99310.94;20548555;27;8467817;-60
2021/12/04 13:38:36;;;;;;;7.10;6.40;;;;;;;3.31;100.00;99307.75;20619501;27;8306170;-68
2021/12/04 13:49:06;;;;;;;6.67;5.70;;;;;;;3.09;100.00;99316.75;20980625;28;20241;-70
2021/12/04 13:59:35;;;;;;;6.57;5.70;;;;;;;2.81;100.00;99311.13;20921797;28;20320;-63
2021/12/04 14:10:21;;;;;;;8.40;6.20;;;;;;;2.50;100.00;99310.00;20885061;28;20325;-67
2021/12/04 14:21:00;;;;;;;6.83;6.13;;;;;;;2.24;100.00;99288.44;20915695;28;20216;-66
2021/12/04 14:31:32;;;;;;;12.53;7.87;;;;;;;2.13;100.00;99310.84;20940360;27;20229;-67
2021/12/04 15:01:58;;;;;;;18.03;12.17;;;;;;;1.06;100.00;99322.59;20706005;27;8307098;-64
2021/12/04 16:32:28;;;;;;;14.20;11.40;;;;;;;1.16;100.00;99377.38;20690666;27;8342035;-60
2021/12/04 17:12:51;;;;;;;16.70;12.93;;;;;;;1.26;100.00;99397.09;20762147;27;8313389;-60
2021/12/04 17:23:22;;;;;;;16.20;12.50;;;;;;;1.30;100.00;99368.00;21055507;28;20696;-62
2021/12/04 17:53:49;;;;;;;19.87;13.53;;;;;;;1.35;100.00;99350.25;20766559;27;8370631;-74
2021/12/04 18:04:25;;;;;;;16.70;12.67;;;;;;;1.31;100.00;99353.09;21056787;28;20227;-73
2021/12/04 18:14:56;;;;;;;21.60;16.07;;;;;;;1.23;100.00;99342.91;21041817;28;20322;-72
2021/12/04 18:55:29;;;;;;;24.60;18.67;;;;;;;0.11;100.00;99356.13;20544500;27;8643275;-66
2021/12/04 22:59:22;;;;;;;28.70;19.03;;;;;;;-2.10;100.00;99322.50;20993777;28;20245;-70
